sensor_id;sensor_type;location;lat;lon;timestamp;pressure;altitude;pressure_sealevel;temperature
68939;BMP180;59064;45.294;11.816;2023-05-20T00:00:28;101473.40;;;16.00
68939;BMP180;59064;45.294;11.816;2023-05-20T00:02:54;101477.00;;;16.00
68939;BMP180;59064;45.294;11.816;2023-05-20T00:05:19;101475.60;;;16.00
68939;BMP180;59064;45.294;11.816;2023-05-20T00:07:45;101474.40;;;16.00
68939;BMP180;59064;45.294;11.816;2023-05-20T00:10:11;101477.00;;;16.00
68939;BMP180;59064;45.294;11.816;2023-05-20T00:12:37;101480.20;;;16.06
68939;BMP180;59064;45.294;11.816;2023-05-20T00:15:04;101480.00;;;16.04
68939;BMP180;59064;45.294;11.816;2023-05-20T00:17:30;101469.60;;;16.08
68939;BMP180;59064;45.294;11.816;2023-05-20T00:19:56;101471.80;;;16.00
68939;BMP180;59064;45.294;11.816;2023-05-20T00:22:22;101470.60;;;16.00
68939;BMP180;59064;45.294;11.816;2023-05-20T00:24:47;101469.40;;;16.00
68939;BMP180;59064;45.294;11.816;2023-05-20T00:27:13;101469.60;;;16.00
68939;BMP180;59064;45.294;11.816;2023-05-20T00:29:39;101470.00;;;16.00
68939;BMP180;59064;45.294;11.816;2023-05-20T00:32:05;101467.20;;;15.98
68939;BMP180;59064;45.294;11.816;2023-05-20T00:34:30;101466.20;;;15.90
68939;BMP180;59064;45.294;11.816;2023-05-20T00:36:56;101466.00;;;15.90
68939;BMP180;59064;45.294;11.816;2023-05-20T00:39:22;101460.40;;;15.90
68939;BMP180;59064;45.294;11.816;2023-05-20T00:41:47;101456.80;;;15.90
68939;BMP180;59064;45.294;11.816;2023-05-20T00:44:13;101450.60;;;15.80
68939;BMP180;59064;45.294;11.816;2023-05-20T00:46:39;101451.40;;;15.80
68939;BMP180;59064;45.294;11.816;2023-05-20T00:49:05;101450.60;;;15.80
68939;BMP180;59064;45.294;11.816;2023-05-20T00:51:31;101455.20;;;15.80
68939;BMP180;59064;45.294;11.816;2023-05-20T00:53:57;101460.80;;;15.80
68939;BMP180;59064;45.294;11.816;2023-05-20T00:56:23;101454.40;;;15.80
68939;BMP180;59064;45.294;11.816;2023-05-20T00:58:50;101455.60;;;15.80
68939;BMP180;59064;45.294;11.816;2023-05-20T01:01:16;101454.40;;;15.80
68939;BMP180;59064;45.294;11.816;2023-05-20T01:03:42;101455.40;;;15.80
68939;BMP180;59064;45.294;11.816;2023-05-20T01:06:07;101454.20;;;15.80
68939;BMP180;59064;45.294;11.816;2023-05-20T01:08:33;101455.20;;;15.80
68939;BMP180;59064;45.294;11.816;2023-05-20T01:11:10;101449.00;;;15.80
68939;BMP180;59064;45.294;11.816;2023-05-20T01:13:53;101446.20;;;15.80
68939;BMP180;59064;45.294;11.816;2023-05-20T01:16:21;101442.40;;;15.70
68939;BMP180;59064;45.294;11.816;2023-05-20T01:18:50;101436.60;;;15.70
68939;BMP180;59064;45.294;11.816;2023-05-20T01:21:19;101429.20;;;15.68
68939;BMP180;59064;45.294;11.816;2023-05-20T01:23:46;101422.40;;;15.60
68939;BMP180;59064;45.294;11.816;2023-05-20T01:26:13;101423.00;;;15.60
68939;BMP180;59064;45.294;11.816;2023-05-20T01:28:40;101420.40;;;15.60
68939;BMP180;59064;45.294;11.816;2023-05-20T01:31:17;101419.60;;;15.60
68939;BMP180;59064;45.294;11.816;2023-05-20T01:33:43;101411.80;;;15.50
68939;BMP180;59064;45.294;11.816;2023-05-20T01:36:11;101415.00;;;15.50
68939;BMP180;59064;45.294;11.816;2023-05-20T01:38:38;101410.00;;;15.40
68939;BMP180;59064;45.294;11.816;2023-05-20T01:41:05;101412.80;;;15.40
68939;BMP180;59064;45.294;11.816;2023-05-20T01:43:31;101411.00;;;15.30
68939;BMP180;59064;45.294;11.816;2023-05-20T01:45:57;101408.20;;;15.30
68939;BMP180;59064;45.294;11.816;2023-05-20T01:48:23;101403.40;;;15.30
68939;BMP180;59064;45.294;11.816;2023-05-20T01:50:49;101398.60;;;15.20
68939;BMP180;59064;45.294;11.816;2023-05-20T01:53:14;101398.20;;;15.20
68939;BMP180;59064;45.294;11.816;2023-05-20T01:55:40;101393.00;;;15.20
68939;BMP180;59064;45.294;11.816;2023-05-20T01:58:06;101396.00;;;15.10
68939;BMP180;59064;45.294;11.816;2023-05-20T02:00:32;101389.80;;;15.10
68939;BMP180;59064;45.294;11.816;2023-05-20T02:02:58;101391.80;;;15.10
68939;BMP180;59064;45.294;11.816;2023-05-20T02:05:24;101389.00;;;15.10
68939;BMP180;59064;45.294;11.816;2023-05-20T02:07:50;101385.00;;;15.10
68939;BMP180;59064;45.294;11.816;2023-05-20T02:10:15;101379.60;;;15.10
68939;BMP180;59064;45.294;11.816;2023-05-20T02:12:41;101379.40;;;15.10
68939;BMP180;59064;45.294;11.816;2023-05-20T02:15:07;101371.80;;;15.08
68939;BMP180;59064;45.294;11.816;2023-05-20T02:17:33;101364.80;;;15.00
68939;BMP180;59064;45.294;11.816;2023-05-20T02:19:59;101359.40;;;15.00
68939;BMP180;59064;45.294;11.816;2023-05-20T02:22:24;101364.60;;;15.00
68939;BMP180;59064;45.294;11.816;2023-05-20T02:24:50;101359.80;;;15.00
68939;BMP180;59064;45.294;11.816;2023-05-20T02:27:16;101365.40;;;15.00
68939;BMP180;59064;45.294;11.816;2023-05-20T02:29:42;101361.80;;;15.02
68939;BMP180;59064;45.294;11.816;2023-05-20T02:32:08;101352.20;;;15.10
68939;BMP180;59064;45.294;11.816;2023-05-20T02:34:34;101353.80;;;15.10
68939;BMP180;59064;45.294;11.816;2023-05-20T02:37:00;101351.20;;;15.10
68939;BMP180;59064;45.294;11.816;2023-05-20T02:39:25;101352.00;;;15.10
68939;BMP180;59064;45.294;11.816;2023-05-20T02:41:53;101348.60;;;15.10
68939;BMP180;59064;45.294;11.816;2023-05-20T02:44:18;101346.00;;;15.10
68939;BMP180;59064;45.294;11.816;2023-05-20T02:46:44;101345.40;;;15.06
68939;BMP180;59064;45.294;11.816;2023-05-20T02:49:10;101342.20;;;15.06
68939;BMP180;59064;45.294;11.816;2023-05-20T02:51:35;101340.40;;;15.10
68939;BMP180;59064;45.294;11.816;2023-05-20T02:54:01;101339.20;;;15.10
68939;BMP180;59064;45.294;11.816;2023-05-20T02:56:27;101336.20;;;15.10
68939;BMP180;59064;45.294;11.816;2023-05-20T02:58:53;101337.60;;;15.10
68939;BMP180;59064;45.294;11.816;2023-05-20T03:01:19;101334.60;;;15.10
68939;BMP180;59064;45.294;11.816;2023-05-20T03:03:44;101334.00;;;15.10
68939;BMP180;59064;45.294;11.816;2023-05-20T03:06:11;101326.80;;;15.10
68939;BMP180;59064;45.294;11.816;2023-05-20T03:08:37;101325.20;;;15.10
68939;BMP180;59064;45.294;11.816;2023-05-20T03:11:04;101331.20;;;15.10
68939;BMP180;59064;45.294;11.816;2023-05-20T03:13:29;101334.00;;;15.10
68939;BMP180;59064;45.294;11.816;2023-05-20T03:15:55;101331.20;;;15.04
68939;BMP180;59064;45.294;11.816;2023-05-20T03:18:21;101330.40;;;15.00
68939;BMP180;59064;45.294;11.816;2023-05-20T03:20:46;101333.40;;;15.00
68939;BMP180;59064;45.294;11.816;2023-05-20T03:23:12;101330.80;;;15.02
68939;BMP180;59064;45.294;11.816;2023-05-20T03:25:39;101329.80;;;15.00
68939;BMP180;59064;45.294;11.816;2023-05-20T03:28:05;101331.40;;;15.00
68939;BMP180;59064;45.294;11.816;2023-05-20T03:30:31;101327.80;;;15.00
68939;BMP180;59064;45.294;11.816;2023-05-20T03:32:57;101326.60;;;15.00
68939;BMP180;59064;45.294;11.816;2023-05-20T03:35:24;101325.80;;;15.00
68939;BMP180;59064;45.294;11.816;2023-05-20T03:37:50;101320.80;;;15.00
68939;BMP180;59064;45.294;11.816;2023-05-20T03:40:18;101311.80;;;15.00
68939;BMP180;59064;45.294;11.816;2023-05-20T03:42:47;101308.80;;;15.00
68939;BMP180;59064;45.294;11.816;2023-05-20T03:45:14;101302.20;;;15.00
68939;BMP180;59064;45.294;11.816;2023-05-20T03:47:39;101304.20;;;15.00
68939;BMP180;59064;45.294;11.816;2023-05-20T03:50:06;101300.00;;;15.00
68939;BMP180;59064;45.294;11.816;2023-05-20T03:52:32;101303.20;;;15.10
68939;BMP180;59064;45.294;11.816;2023-05-20T03:54:57;101301.00;;;15.10
68939;BMP180;59064;45.294;11.816;2023-05-20T03:57:23;101304.20;;;15.10
68939;BMP180;59064;45.294;11.816;2023-05-20T03:59:49;101302.00;;;15.12
68939;BMP180;59064;45.294;11.816;2023-05-20T04:02:15;101303.40;;;15.16
68939;BMP180;59064;45.294;11.816;2023-05-20T04:04:41;101300.80;;;15.20
68939;BMP180;59064;45.294;11.816;2023-05-20T04:07:08;101298.20;;;15.20
68939;BMP180;59064;45.294;11.816;2023-05-20T04:09:35;101300.60;;;15.20
68939;BMP180;59064;45.294;11.816;2023-05-20T04:12:01;101300.40;;;15.20
68939;BMP180;59064;45.294;11.816;2023-05-20T04:14:27;101301.40;;;15.30
68939;BMP180;59064;45.294;11.816;2023-05-20T04:16:53;101302.00;;;15.30
68939;BMP180;59064;45.294;11.816;2023-05-20T04:19:18;101307.40;;;15.30
68939;BMP180;59064;45.294;11.816;2023-05-20T04:21:44;101298.60;;;15.30
68939;BMP180;59064;45.294;11.816;2023-05-20T04:24:10;101299.60;;;15.30
68939;BMP180;59064;45.294;11.816;2023-05-20T04:26:36;101299.80;;;15.30
68939;BMP180;59064;45.294;11.816;2023-05-20T04:29:03;101306.00;;;15.30
68939;BMP180;59064;45.294;11.816;2023-05-20T04:31:29;101303.80;;;15.30
68939;BMP180;59064;45.294;11.816;2023-05-20T04:33:56;101299.20;;;15.30
68939;BMP180;59064;45.294;11.816;2023-05-20T04:36:22;101295.60;;;15.30
68939;BMP180;59064;45.294;11.816;2023-05-20T04:38:54;101294.00;;;15.34
68939;BMP180;59064;45.294;11.816;2023-05-20T04:41:20;101295.40;;;15.40
68939;BMP180;59064;45.294;11.816;2023-05-20T04:43:45;101292.20;;;15.40
68939;BMP180;59064;45.294;11.816;2023-05-20T04:46:11;101293.00;;;15.40
68939;BMP180;59064;45.294;11.816;2023-05-20T04:48:37;101297.00;;;15.40
68939;BMP180;59064;45.294;11.816;2023-05-20T04:51:03;101298.40;;;15.40
68939;BMP180;59064;45.294;11.816;2023-05-20T04:53:28;101293.40;;;15.50
68939;BMP180;59064;45.294;11.816;2023-05-20T04:55:58;101289.40;;;15.50
68939;BMP180;59064;45.294;11.816;2023-05-20T04:58:24;101284.00;;;15.58
68939;BMP180;59064;45.294;11.816;2023-05-20T05:00:51;101281.80;;;15.60
68939;BMP180;59064;45.294;11.816;2023-05-20T05:03:17;101276.20;;;15.60
68939;BMP180;59064;45.294;11.816;2023-05-20T05:05:43;101274.00;;;15.70
68939;BMP180;59064;45.294;11.816;2023-05-20T05:08:09;101277.80;;;15.70
68939;BMP180;59064;45.294;11.816;2023-05-20T05:10:38;101272.60;;;15.76
68939;BMP180;59064;45.294;11.816;2023-05-20T05:13:04;101276.80;;;15.80
68939;BMP180;59064;45.294;11.816;2023-05-20T05:15:29;101275.00;;;15.90
68939;BMP180;59064;45.294;11.816;2023-05-20T05:17:55;101269.40;;;15.90
68939;BMP180;59064;45.294;11.816;2023-05-20T05:20:21;101267.60;;;16.00
68939;BMP180;59064;45.294;11.816;2023-05-20T05:22:46;101272.80;;;16.00
68939;BMP180;59064;45.294;11.816;2023-05-20T05:25:14;101270.20;;;16.10
68939;BMP180;59064;45.294;11.816;2023-05-20T05:27:40;101274.00;;;16.18
68939;BMP180;59064;45.294;11.816;2023-05-20T05:30:07;101270.00;;;16.20
68939;BMP180;59064;45.294;11.816;2023-05-20T05:32:33;101270.80;;;16.30
68939;BMP180;59064;45.294;11.816;2023-05-20T05:34:59;101270.80;;;16.30
68939;BMP180;59064;45.294;11.816;2023-05-20T05:37:24;101267.20;;;16.36
68939;BMP180;59064;45.294;11.816;2023-05-20T05:39:51;101270.80;;;16.40
68939;BMP180;59064;45.294;11.816;2023-05-20T05:42:17;101267.20;;;16.50
68939;BMP180;59064;45.294;11.816;2023-05-20T05:44:43;101271.20;;;16.54
68939;BMP180;59064;45.294;11.816;2023-05-20T05:47:09;101264.00;;;16.60
68939;BMP180;59064;45.294;11.816;2023-05-20T05:49:35;101259.80;;;16.70
68939;BMP180;59064;45.294;11.816;2023-05-20T05:52:01;101253.40;;;16.70
68939;BMP180;59064;45.294;11.816;2023-05-20T05:54:27;101256.60;;;16.80
68939;BMP180;59064;45.294;11.816;2023-05-20T05:56:53;101252.00;;;16.80
68939;BMP180;59064;45.294;11.816;2023-05-20T05:59:21;101250.60;;;16.90
68939;BMP180;59064;45.294;11.816;2023-05-20T06:01:47;101249.00;;;16.90
68939;BMP180;59064;45.294;11.816;2023-05-20T06:04:13;101248.60;;;16.96
68939;BMP180;59064;45.294;11.816;2023-05-20T06:06:39;101252.00;;;17.00
68939;BMP180;59064;45.294;11.816;2023-05-20T06:09:06;101248.00;;;17.00
68939;BMP180;59064;45.294;11.816;2023-05-20T06:11:31;101242.40;;;17.10
68939;BMP180;59064;45.294;11.816;2023-05-20T06:13:57;101245.60;;;17.10
68939;BMP180;59064;45.294;11.816;2023-05-20T06:16:23;101242.80;;;17.20
68939;BMP180;59064;45.294;11.816;2023-05-20T06:18:49;101241.40;;;17.20
68939;BMP180;59064;45.294;11.816;2023-05-20T06:21:15;101239.00;;;17.22
68939;BMP180;59064;45.294;11.816;2023-05-20T06:23:41;101242.40;;;17.30
68939;BMP180;59064;45.294;11.816;2023-05-20T06:26:07;101240.80;;;17.30
68939;BMP180;59064;45.294;11.816;2023-05-20T06:28:33;101237.20;;;17.30
68939;BMP180;59064;45.294;11.816;2023-05-20T06:30:58;101244.00;;;17.38
68939;BMP180;59064;45.294;11.816;2023-05-20T06:33:26;101239.80;;;17.36
68939;BMP180;59064;45.294;11.816;2023-05-20T06:35:54;101242.20;;;17.38
68939;BMP180;59064;45.294;11.816;2023-05-20T06:38:20;101243.60;;;17.40
68939;BMP180;59064;45.294;11.816;2023-05-20T06:40:47;101246.00;;;17.40
68939;BMP180;59064;45.294;11.816;2023-05-20T06:43:14;101248.40;;;17.40
68939;BMP180;59064;45.294;11.816;2023-05-20T06:45:39;101252.60;;;17.40
68939;BMP180;59064;45.294;11.816;2023-05-20T06:48:05;101250.60;;;17.40
68939;BMP180;59064;45.294;11.816;2023-05-20T06:50:31;101254.40;;;17.44
68939;BMP180;59064;45.294;11.816;2023-05-20T06:52:57;101258.20;;;17.50
68939;BMP180;59064;45.294;11.816;2023-05-20T06:55:22;101255.00;;;17.60
68939;BMP180;59064;45.294;11.816;2023-05-20T06:57:48;101256.80;;;17.60
68939;BMP180;59064;45.294;11.816;2023-05-20T07:00:14;101253.20;;;17.60
68939;BMP180;59064;45.294;11.816;2023-05-20T07:02:41;101255.80;;;17.60
68939;BMP180;59064;45.294;11.816;2023-05-20T07:05:08;101254.80;;;17.50
68939;BMP180;59064;45.294;11.816;2023-05-20T07:07:33;101257.80;;;17.50
68939;BMP180;59064;45.294;11.816;2023-05-20T07:09:59;101255.00;;;17.50
68939;BMP180;59064;45.294;11.816;2023-05-20T07:12:25;101256.00;;;17.40
68939;BMP180;59064;45.294;11.816;2023-05-20T07:14:51;101257.00;;;17.40
68939;BMP180;59064;45.294;11.816;2023-05-20T07:17:16;101255.00;;;17.40
68939;BMP180;59064;45.294;11.816;2023-05-20T07:19:42;101249.80;;;17.38
68939;BMP180;59064;45.294;11.816;2023-05-20T07:22:08;101258.80;;;17.30
68939;BMP180;59064;45.294;11.816;2023-05-20T07:24:37;101266.00;;;17.30
68939;BMP180;59064;45.294;11.816;2023-05-20T07:27:02;101259.80;;;17.30
68939;BMP180;59064;45.294;11.816;2023-05-20T07:29:28;101260.60;;;17.30
68939;BMP180;59064;45.294;11.816;2023-05-20T07:31:54;101255.60;;;17.30
68939;BMP180;59064;45.294;11.816;2023-05-20T07:34:19;101256.60;;;17.30
68939;BMP180;59064;45.294;11.816;2023-05-20T07:36:47;101257.20;;;17.30
68939;BMP180;59064;45.294;11.816;2023-05-20T07:39:14;101257.80;;;17.30
68939;BMP180;59064;45.294;11.816;2023-05-20T07:41:40;101256.20;;;17.30
68939;BMP180;59064;45.294;11.816;2023-05-20T07:44:06;101255.80;;;17.30
68939;BMP180;59064;45.294;11.816;2023-05-20T07:46:36;101249.20;;;17.40
68939;BMP180;59064;45.294;11.816;2023-05-20T07:49:03;101247.40;;;17.40
68939;BMP180;59064;45.294;11.816;2023-05-20T07:51:29;101244.20;;;17.50
68939;BMP180;59064;45.294;11.816;2023-05-20T07:53:56;101246.60;;;17.50
68939;BMP180;59064;45.294;11.816;2023-05-20T07:56:22;101250.20;;;17.54
68939;BMP180;59064;45.294;11.816;2023-05-20T07:58:53;101252.00;;;17.60
68939;BMP180;59064;45.294;11.816;2023-05-20T08:01:19;101251.80;;;17.60
68939;BMP180;59064;45.294;11.816;2023-05-20T08:03:45;101254.60;;;17.60
68939;BMP180;59064;45.294;11.816;2023-05-20T08:06:11;101254.60;;;17.60
68939;BMP180;59064;45.294;11.816;2023-05-20T08:08:37;101253.80;;;17.60
68939;BMP180;59064;45.294;11.816;2023-05-20T08:11:05;101255.00;;;17.60
68939;BMP180;59064;45.294;11.816;2023-05-20T08:13:30;101253.60;;;17.60
68939;BMP180;59064;45.294;11.816;2023-05-20T08:15:56;101248.00;;;17.60
68939;BMP180;59064;45.294;11.816;2023-05-20T08:18:22;101253.00;;;17.60
68939;BMP180;59064;45.294;11.816;2023-05-20T08:20:48;101255.40;;;17.60
68939;BMP180;59064;45.294;11.816;2023-05-20T08:23:14;101253.40;;;17.56
68939;BMP180;59064;45.294;11.816;2023-05-20T08:25:39;101257.00;;;17.50
68939;BMP180;59064;45.294;11.816;2023-05-20T08:28:05;101262.00;;;17.52
68939;BMP180;59064;45.294;11.816;2023-05-20T08:30:32;101252.40;;;17.58
68939;BMP180;59064;45.294;11.816;2023-05-20T08:32:59;101255.40;;;17.60
68939;BMP180;59064;45.294;11.816;2023-05-20T08:35:25;101256.60;;;17.60
68939;BMP180;59064;45.294;11.816;2023-05-20T08:37:51;101266.40;;;17.70
68939;BMP180;59064;45.294;11.816;2023-05-20T08:40:20;101265.80;;;17.80
68939;BMP180;59064;45.294;11.816;2023-05-20T08:42:48;101265.00;;;17.86
68939;BMP180;59064;45.294;11.816;2023-05-20T08:45:18;101273.60;;;17.90
68939;BMP180;59064;45.294;11.816;2023-05-20T08:47:45;101273.60;;;17.96
68939;BMP180;59064;45.294;11.816;2023-05-20T08:50:12;101277.80;;;18.00
68939;BMP180;59064;45.294;11.816;2023-05-20T08:52:45;101271.20;;;18.00
68939;BMP180;59064;45.294;11.816;2023-05-20T08:55:24;101273.40;;;18.10
68939;BMP180;59064;45.294;11.816;2023-05-20T08:57:53;101274.00;;;18.10
68939;BMP180;59064;45.294;11.816;2023-05-20T09:00:21;101274.00;;;18.20
68939;BMP180;59064;45.294;11.816;2023-05-20T09:02:51;101280.20;;;18.20
68939;BMP180;59064;45.294;11.816;2023-05-20T09:05:17;101279.20;;;18.30
68939;BMP180;59064;45.294;11.816;2023-05-20T09:07:44;101276.40;;;18.30
68939;BMP180;59064;45.294;11.816;2023-05-20T09:10:10;101270.20;;;18.40
68939;BMP180;59064;45.294;11.816;2023-05-20T09:12:36;101268.60;;;18.50
68939;BMP180;59064;45.294;11.816;2023-05-20T09:15:06;101262.80;;;18.68
68939;BMP180;59064;45.294;11.816;2023-05-20T09:17:36;101270.60;;;18.80
68939;BMP180;59064;45.294;11.816;2023-05-20T09:20:09;101269.40;;;18.94
68939;BMP180;59064;45.294;11.816;2023-05-20T09:22:37;101272.00;;;19.06
68939;BMP180;59064;45.294;11.816;2023-05-20T09:25:04;101270.80;;;19.20
68939;BMP180;59064;45.294;11.816;2023-05-20T09:27:30;101264.60;;;19.40
68939;BMP180;59064;45.294;11.816;2023-05-20T09:29:57;101255.60;;;19.50
68939;BMP180;59064;45.294;11.816;2023-05-20T09:32:23;101258.20;;;19.60
68939;BMP180;59064;45.294;11.816;2023-05-20T09:34:51;101257.60;;;19.70
68939;BMP180;59064;45.294;11.816;2023-05-20T09:37:17;101250.60;;;19.80
68939;BMP180;59064;45.294;11.816;2023-05-20T09:40:00;101251.60;;;19.92
68939;BMP180;59064;45.294;11.816;2023-05-20T09:42:40;101251.60;;;20.00
68939;BMP180;59064;45.294;11.816;2023-05-20T09:45:07;101251.20;;;20.10
68939;BMP180;59064;45.294;11.816;2023-05-20T09:47:38;101245.20;;;20.10
68939;BMP180;59064;45.294;11.816;2023-05-20T09:50:07;101253.00;;;20.00
68939;BMP180;59064;45.294;11.816;2023-05-20T09:52:37;101252.20;;;20.00
68939;BMP180;59064;45.294;11.816;2023-05-20T09:55:08;101238.80;;;20.00
68939;BMP180;59064;45.294;11.816;2023-05-20T09:57:37;101247.20;;;19.90
68939;BMP180;59064;45.294;11.816;2023-05-20T10:00:05;101240.20;;;19.80
68939;BMP180;59064;45.294;11.816;2023-05-20T10:02:32;101245.00;;;19.82
68939;BMP180;59064;45.294;11.816;2023-05-20T10:05:02;101243.80;;;19.80
68939;BMP180;59064;45.294;11.816;2023-05-20T10:11:11;101251.60;;;19.90
68939;BMP180;59064;45.294;11.816;2023-05-20T10:14:14;101257.80;;;19.90
68939;BMP180;59064;45.294;11.816;2023-05-20T10:19:40;101256.60;;;19.80
68939;BMP180;59064;45.294;11.816;2023-05-20T10:22:08;101253.40;;;19.70
68939;BMP180;59064;45.294;11.816;2023-05-20T10:24:40;101254.00;;;19.70
68939;BMP180;59064;45.294;11.816;2023-05-20T10:27:11;101259.40;;;19.60
68939;BMP180;59064;45.294;11.816;2023-05-20T10:29:52;101259.80;;;19.60
68939;BMP180;59064;45.294;11.816;2023-05-20T10:32:26;101265.20;;;19.50
68939;BMP180;59064;45.294;11.816;2023-05-20T10:35:07;101264.20;;;19.50
68939;BMP180;59064;45.294;11.816;2023-05-20T10:37:44;101265.80;;;19.50
68939;BMP180;59064;45.294;11.816;2023-05-20T10:40:19;101263.80;;;19.50
68939;BMP180;59064;45.294;11.816;2023-05-20T10:42:45;101253.60;;;19.50
68939;BMP180;59064;45.294;11.816;2023-05-20T10:45:27;101257.80;;;19.46
68939;BMP180;59064;45.294;11.816;2023-05-20T10:47:57;101239.20;;;19.40
68939;BMP180;59064;45.294;11.816;2023-05-20T10:50:37;101228.60;;;19.34
68939;BMP180;59064;45.294;11.816;2023-05-20T10:53:13;101218.20;;;19.30
68939;BMP180;59064;45.294;11.816;2023-05-20T10:55:45;101210.40;;;19.26
68939;BMP180;59064;45.294;11.816;2023-05-20T10:58:12;101204.60;;;19.22
68939;BMP180;59064;45.294;11.816;2023-05-20T11:00:38;101199.20;;;19.28
68939;BMP180;59064;45.294;11.816;2023-05-20T11:03:05;101211.40;;;19.30
68939;BMP180;59064;45.294;11.816;2023-05-20T11:05:32;101227.00;;;19.40
68939;BMP180;59064;45.294;11.816;2023-05-20T11:08:10;101236.40;;;19.58
68939;BMP180;59064;45.294;11.816;2023-05-20T11:10:36;101240.40;;;19.72
68939;BMP180;59064;45.294;11.816;2023-05-20T11:13:03;101237.40;;;19.90
68939;BMP180;59064;45.294;11.816;2023-05-20T11:15:34;101244.80;;;20.08
68939;BMP180;59064;45.294;11.816;2023-05-20T11:18:02;101234.40;;;20.20
68939;BMP180;59064;45.294;11.816;2023-05-20T11:20:30;101231.20;;;20.30
68939;BMP180;59064;45.294;11.816;2023-05-20T11:23:00;101230.00;;;20.46
68939;BMP180;59064;45.294;11.816;2023-05-20T11:25:27;101234.60;;;20.60
68939;BMP180;59064;45.294;11.816;2023-05-20T11:27:53;101234.40;;;20.70
68939;BMP180;59064;45.294;11.816;2023-05-20T11:30:19;101218.40;;;20.70
68939;BMP180;59064;45.294;11.816;2023-05-20T11:33:03;101228.60;;;20.72
68939;BMP180;59064;45.294;11.816;2023-05-20T11:35:30;101229.80;;;20.80
68939;BMP180;59064;45.294;11.816;2023-05-20T11:38:05;101225.60;;;20.90
68939;BMP180;59064;45.294;11.816;2023-05-20T11:40:33;101223.60;;;20.88
68939;BMP180;59064;45.294;11.816;2023-05-20T11:43:03;101219.80;;;20.76
68939;BMP180;59064;45.294;11.816;2023-05-20T11:45:46;101227.00;;;20.70
68939;BMP180;59064;45.294;11.816;2023-05-20T11:48:12;101230.80;;;20.74
68939;BMP180;59064;45.294;11.816;2023-05-20T11:50:45;101228.20;;;20.70
68939;BMP180;59064;45.294;11.816;2023-05-20T11:53:20;101229.80;;;20.74
68939;BMP180;59064;45.294;11.816;2023-05-20T11:55:56;101241.20;;;20.76
68939;BMP180;59064;45.294;11.816;2023-05-20T11:58:28;101237.40;;;20.80
68939;BMP180;59064;45.294;11.816;2023-05-20T12:00:54;101240.40;;;20.70
68939;BMP180;59064;45.294;11.816;2023-05-20T12:03:20;101240.60;;;20.70
68939;BMP180;59064;45.294;11.816;2023-05-20T12:05:46;101236.40;;;20.60
68939;BMP180;59064;45.294;11.816;2023-05-20T12:08:13;101228.60;;;20.58
68939;BMP180;59064;45.294;11.816;2023-05-20T12:10:39;101236.00;;;20.50
68939;BMP180;59064;45.294;11.816;2023-05-20T12:13:07;101242.60;;;20.40
68939;BMP180;59064;45.294;11.816;2023-05-20T12:15:37;101249.60;;;20.40
68939;BMP180;59064;45.294;11.816;2023-05-20T12:18:02;101250.60;;;20.40
68939;BMP180;59064;45.294;11.816;2023-05-20T12:20:29;101246.20;;;20.36
68939;BMP180;59064;45.294;11.816;2023-05-20T12:22:59;101254.60;;;20.30
68939;BMP180;59064;45.294;11.816;2023-05-20T12:25:25;101251.00;;;20.30
68939;BMP180;59064;45.294;11.816;2023-05-20T12:27:51;101249.60;;;20.30
68939;BMP180;59064;45.294;11.816;2023-05-20T12:30:19;101246.00;;;20.30
68939;BMP180;59064;45.294;11.816;2023-05-20T12:32:47;101244.60;;;20.30
68939;BMP180;59064;45.294;11.816;2023-05-20T12:35:14;101245.00;;;20.28
68939;BMP180;59064;45.294;11.816;2023-05-20T12:37:41;101246.20;;;20.30
68939;BMP180;59064;45.294;11.816;2023-05-20T12:40:10;101245.40;;;20.30
68939;BMP180;59064;45.294;11.816;2023-05-20T12:42:38;101246.60;;;20.34
68939;BMP180;59064;45.294;11.816;2023-05-20T12:45:05;101250.40;;;20.36
68939;BMP180;59064;45.294;11.816;2023-05-20T12:47:32;101240.40;;;20.30
68939;BMP180;59064;45.294;11.816;2023-05-20T12:49:58;101241.40;;;20.30
68939;BMP180;59064;45.294;11.816;2023-05-20T12:52:25;101236.60;;;20.30
68939;BMP180;59064;45.294;11.816;2023-05-20T12:54:53;101246.00;;;20.30
68939;BMP180;59064;45.294;11.816;2023-05-20T12:57:19;101251.20;;;20.32
68939;BMP180;59064;45.294;11.816;2023-05-20T12:59:45;101252.60;;;20.40
68939;BMP180;59064;45.294;11.816;2023-05-20T13:02:11;101258.20;;;20.40
68939;BMP180;59064;45.294;11.816;2023-05-20T13:04:36;101263.60;;;20.30
68939;BMP180;59064;45.294;11.816;2023-05-20T13:07:02;101261.00;;;20.30
68939;BMP180;59064;45.294;11.816;2023-05-20T13:09:28;101263.80;;;20.20
68939;BMP180;59064;45.294;11.816;2023-05-20T13:11:54;101252.40;;;20.20
68939;BMP180;59064;45.294;11.816;2023-05-20T13:14:20;101257.40;;;20.22
68939;BMP180;59064;45.294;11.816;2023-05-20T13:16:47;101253.40;;;20.30
68939;BMP180;59064;45.294;11.816;2023-05-20T13:19:13;101248.20;;;20.40
68939;BMP180;59064;45.294;11.816;2023-05-20T13:21:39;101244.00;;;20.50
68939;BMP180;59064;45.294;11.816;2023-05-20T13:24:05;101235.40;;;20.60
68939;BMP180;59064;45.294;11.816;2023-05-20T13:26:30;101235.20;;;20.68
68939;BMP180;59064;45.294;11.816;2023-05-20T13:28:57;101239.20;;;20.70
68939;BMP180;59064;45.294;11.816;2023-05-20T13:31:23;101232.80;;;20.62
68939;BMP180;59064;45.294;11.816;2023-05-20T13:33:48;101230.40;;;20.56
68939;BMP180;59064;45.294;11.816;2023-05-20T13:36:14;101230.40;;;20.50
68939;BMP180;59064;45.294;11.816;2023-05-20T13:38:40;101227.80;;;20.50
68939;BMP180;59064;45.294;11.816;2023-05-20T13:41:06;101232.20;;;20.42
68939;BMP180;59064;45.294;11.816;2023-05-20T13:43:32;101230.60;;;20.40
68939;BMP180;59064;45.294;11.816;2023-05-20T13:45:58;101239.00;;;20.40
68939;BMP180;59064;45.294;11.816;2023-05-20T13:48:24;101243.40;;;20.40
68939;BMP180;59064;45.294;11.816;2023-05-20T13:50:50;101237.60;;;20.40